Arlington, WA

4:18 AM PDT on August 20, 2014 (GMT -0700)
Arlington Municipal | Change Station
CLOSE
Current Station
Airport
Location: Arlington,
Elevation: 138 ft
Nearby Weather Stations

Elev 138 ft 48.16 °N, 122.16 °W | Updated 23 minutes ago

Overcast
Overcast
57 °F
Feels Like 57 °F
N
0
Wind Variable Wind from North

Today
High -- | Low -- °F
--% Chance of Precip.
Yesterday
High -- | Low -- °F
Precip. -- in
6:09 AM 8:12 PM
Waning Crescent, 22% visible
Pressure 29.89 in
Visibility 10.0 miles
Clouds Overcast 6000 ft
Dew Point 52 °F
Humidity 82%
Rainfall 0.00 in
Snow Depth Not available.
UV 0 out of 12
Pollen 2.70 out of 12
PM2.5 Good
Flu Activity Not available.
METAR KAWO 201055Z AUTO 00000KT 10SM OVC060 14/11 A2989 RMK AO1

More Conditions Fewer Conditions

Pressure 29.89 in
Visibility 10.0 miles
Clouds Overcast 6000 ft
Dew Point 52 °F
Humidity 82%
Rainfall 0.00 in
Snow Depth Not available.
UV 0 out of 12
Pollen 2.70 out of 12
PM2.5 Good
Flu Activity Not available.
METAR KAWO 201055Z AUTO 00000KT 10SM OVC060 14/11 A2989 RMK AO1

More Conditions Fewer Conditions

10-Day Weather Forecast

Almanac

Astronomy

Aug. 20, 2014 Rise Set
Actual Time 6:09 AM PDT 8:12 PM PDT
Civil Twilight 5:35 AM PDT 8:45 PM PDT
Nautical Twilight 4:53 AM PDT 9:27 PM PDT
Astronomical Twilight 4:07 AM PDT 10:13 PM PDT
Moon 1:45 AM PDT 5:09 PM PDT
Length of Visible Light 15h 10m
Length of Day
14h 02m
Tomorrow will be 3m 14s shorter.
Waning Crescent, 22% of the Moon is Illuminated
Today
Waning Crescent
Aug 25
New
Sep 2
First Quarter
Sep 8
Full
Sep 15
Last Quarter

Today's Extremes

State Highs State Lows

Community

WunderPhotos

Upload Photos

1,745,609 photos uploaded!

Nearby

Air Quality

  Air Quality AQ Index Pollutant
Yesterday Good
OZONE
Yesterday Good
PM2.5
Current Good
PM2.5
Wednesday Good
OZONE
Wednesday Good
PM2.5
Thursday Good
OZONE
Thursday Good
PM2.5
Friday Good
OZONE
Friday Good
PM2.5
Saturday Good
OZONE
Saturday Good
PM2.5

Snow Depth

Station Depth Elevation
Alpine Meadows 0 in 3500 ft
Skookum Creek 0 in 3920 ft
Lyman Lake 0 in 5900 ft
Thunder Basin 0 in 4200 ft
Stevens Pass 0 in 4070 ft

Earthquake Activity

City Distance Mag. Time & Date
No recent earthquake activity has been reported nearby.
Minimum magnitude displayed is 2.5.

Coastal Water Temperatures

Place Temperature
Port Townsend, WA 53.1 °F
Seattle, WA 55.9 °F
Friday Harbor, WA 54.0 °F
Tacoma, WA 55.9 °F

Nearby Weather Stations